JBU5109 SKCG-KFLL
Flight info
| Callsign | JBU5109 |
|---|---|
| Flight time | N/A |
| Altitude | 34000 |
| Route | SKCG VARON2A VARON UM779 ALTIB/N0449F350 DCT BORDO OLAHS3 KFLL D |
| Aircraft | A21N/M-SDE2E3FGHIRWXY/LB1 |
Departure
| Time | 2026-05-04 05:02 |
|---|---|
| Airport | Rafael Nuñez International Airport (SKCG) |
Arrival
| Time | N/A |
|---|---|
| Airport | Fort Lauderdale Hollywood International Airport (KFLL) |
| Time | Latitude | Longitude | Altitude | Speed | Heading |
|---|---|---|---|---|---|
| 2026-05-04 04:42 | 10.44669 | -75.51569 | 18 ft | 0 kts | 269° |
| 2026-05-04 04:48 | 10.44669 | -75.51555 | 18 ft | 3 kts | 274° |
| 2026-05-04 04:49 | 10.44645 | -75.51478 | 18 ft | 3 kts | 302° |
| 2026-05-04 04:49 | 10.44634 | -75.51461 | 18 ft | 3 kts | 307° |
| 2026-05-04 04:49 | 10.44621 | -75.51445 | 18 ft | 3 kts | 310° |
| 2026-05-04 04:49 | 10.44609 | -75.51430 | 18 ft | 2 kts | 306° |
| 2026-05-04 04:50 | 10.44607 | -75.51427 | 18 ft | 0 kts | 305° |
| 2026-05-04 04:50 | 10.44607 | -75.51428 | 18 ft | 0 kts | 305° |
| 2026-05-04 04:52 | 10.44610 | -75.51433 | 18 ft | 2 kts | 303° |
| 2026-05-04 04:52 | 10.44615 | -75.51442 | 18 ft | 1 kts | 293° |
| 2026-05-04 04:52 | 10.44623 | -75.51449 | 18 ft | 2 kts | 341° |
| 2026-05-04 04:53 | 10.44638 | -75.51441 | 18 ft | 3 kts | 62° |
| 2026-05-04 04:53 | 10.44640 | -75.51419 | 18 ft | 4 kts | 82° |
| 2026-05-04 04:53 | 10.44641 | -75.51398 | 18 ft | 3 kts | 85° |
| 2026-05-04 04:53 | 10.44642 | -75.51389 | 18 ft | 1 kts | 81° |
| 2026-05-04 04:54 | 10.44645 | -75.51377 | 18 ft | 0 kts | 75° |
| 2026-05-04 04:54 | 10.44645 | -75.51376 | 18 ft | 0 kts | 75° |
| 2026-05-04 04:54 | 10.44646 | -75.51375 | 18 ft | 1 kts | 72° |
| 2026-05-04 04:55 | 10.44647 | -75.51370 | 18 ft | 0 kts | 71° |
| 2026-05-04 04:55 | 10.44648 | -75.51369 | 18 ft | 0 kts | 70° |
| 2026-05-04 04:55 | 10.44648 | -75.51368 | 18 ft | 0 kts | 69° |
| 2026-05-04 04:56 | 10.44649 | -75.51357 | 18 ft | 3 kts | 94° |
| 2026-05-04 04:56 | 10.44639 | -75.51325 | 18 ft | 6 kts | 121° |
| 2026-05-04 04:56 | 10.44596 | -75.51295 | 18 ft | 10 kts | 163° |
| 2026-05-04 04:57 | 10.44517 | -75.51291 | 18 ft | 13 kts | 180° |
| 2026-05-04 04:57 | 10.44414 | -75.51293 | 18 ft | 17 kts | 180° |
| 2026-05-04 04:57 | 10.44285 | -75.51294 | 18 ft | 20 kts | 181° |
| 2026-05-04 04:57 | 10.44132 | -75.51305 | 18 ft | 24 kts | 184° |
| 2026-05-04 04:58 | 10.43958 | -75.51316 | 18 ft | 26 kts | 182° |
| 2026-05-04 04:58 | 10.43771 | -75.51323 | 18 ft | 28 kts | 182° |
| 2026-05-04 04:58 | 10.43573 | -75.51330 | 18 ft | 29 kts | 182° |
| 2026-05-04 04:58 | 10.43364 | -75.51338 | 18 ft | 31 kts | 182° |
| 2026-05-04 04:59 | 10.43221 | -75.51334 | 18 ft | 13 kts | 153° |
| 2026-05-04 04:59 | 10.43155 | -75.51273 | 18 ft | 12 kts | 137° |
| 2026-05-04 04:59 | 10.43083 | -75.51241 | 18 ft | 12 kts | 189° |
| 2026-05-04 04:59 | 10.43044 | -75.51281 | 18 ft | 6 kts | 271° |
| 2026-05-04 05:00 | 10.43053 | -75.51326 | 18 ft | 7 kts | 295° |
| 2026-05-04 05:00 | 10.43091 | -75.51348 | 18 ft | 6 kts | 1° |
| 2026-05-04 05:00 | 10.43095 | -75.51348 | 18 ft | 0 kts | 0° |
| 2026-05-04 05:01 | 10.43096 | -75.51348 | 18 ft | 0 kts | 0° |
| 2026-05-04 05:01 | 10.43281 | -75.51344 | 18 ft | 66 kts | 2° |
| 2026-05-04 05:01 | 10.43996 | -75.51317 | 18 ft | 137 kts | 2° |
| 2026-05-04 05:02 | 10.45127 | -75.51266 | 19 ft | 189 kts | 2° |
| 2026-05-04 05:02 | 10.46439 | -75.51198 | 931 ft | 176 kts | 4° |
| 2026-05-04 05:02 | 10.47711 | -75.51196 | 1593 ft | 206 kts | 355° |
| 2026-05-04 05:02 | 10.49226 | -75.51690 | 1715 ft | 245 kts | 339° |
| 2026-05-04 05:03 | 10.50863 | -75.52449 | 1988 ft | 270 kts | 336° |
| 2026-05-04 05:03 | 10.52611 | -75.53272 | 2247 ft | 282 kts | 337° |
| 2026-05-04 05:04 | 10.58170 | -75.55680 | 3005 ft | 293 kts | 340° |
| 2026-05-04 05:04 | 10.60039 | -75.56455 | 3252 ft | 294 kts | 340° |
| 2026-05-04 05:04 | 10.61942 | -75.57239 | 3503 ft | 295 kts | 340° |
| 2026-05-04 05:06 | 10.75417 | -75.62782 | 5249 ft | 299 kts | 340° |
| 2026-05-04 05:06 | 10.77355 | -75.63579 | 5502 ft | 299 kts | 340° |
| 2026-05-04 05:06 | 10.79257 | -75.64362 | 5747 ft | 299 kts | 340° |
| 2026-05-04 05:07 | 10.81189 | -75.65157 | 5997 ft | 299 kts | 340° |
| 2026-05-04 05:07 | 10.83117 | -75.65951 | 6247 ft | 300 kts | 340° |
| 2026-05-04 05:07 | 10.85056 | -75.66749 | 6497 ft | 300 kts | 340° |
| 2026-05-04 05:09 | 11.00588 | -75.73149 | 8498 ft | 301 kts | 340° |
| 2026-05-04 05:09 | 11.02510 | -75.73926 | 8743 ft | 301 kts | 342° |
| 2026-05-04 05:10 | 11.04499 | -75.74582 | 8994 ft | 300 kts | 346° |
| 2026-05-04 05:10 | 11.06544 | -75.75081 | 9247 ft | 300 kts | 350° |
| 2026-05-04 05:10 | 11.08573 | -75.75541 | 9496 ft | 300 kts | 350° |
| 2026-05-04 05:10 | 11.10618 | -75.76006 | 9747 ft | 300 kts | 350° |
| 2026-05-04 05:11 | 11.12655 | -75.76469 | 9998 ft | 300 kts | 350° |
| 2026-05-04 05:11 | 11.14671 | -75.76928 | 10245 ft | 300 kts | 350° |
| 2026-05-04 05:11 | 11.16729 | -75.77395 | 10498 ft | 300 kts | 350° |
| 2026-05-04 05:11 | 11.18744 | -75.77853 | 10745 ft | 300 kts | 349° |
| 2026-05-04 05:12 | 11.20778 | -75.78315 | 10996 ft | 299 kts | 349° |
| 2026-05-04 05:12 | 11.22815 | -75.78778 | 11246 ft | 299 kts | 349° |
| 2026-05-04 05:12 | 11.24844 | -75.79239 | 11496 ft | 299 kts | 349° |
| 2026-05-04 05:12 | 11.26885 | -75.79703 | 11748 ft | 299 kts | 349° |
| 2026-05-04 05:13 | 11.28912 | -75.80163 | 11998 ft | 299 kts | 349° |
| 2026-05-04 05:13 | 11.30948 | -75.80626 | 12249 ft | 298 kts | 349° |
| 2026-05-04 05:13 | 11.32965 | -75.81085 | 12497 ft | 298 kts | 349° |
| 2026-05-04 05:13 | 11.35001 | -75.81548 | 12748 ft | 298 kts | 349° |
| 2026-05-04 05:14 | 11.37000 | -75.82002 | 12995 ft | 299 kts | 349° |
| 2026-05-04 05:14 | 11.39099 | -75.82478 | 13257 ft | 321 kts | 349° |
| 2026-05-04 05:14 | 11.41376 | -75.82991 | 13521 ft | 351 kts | 349° |
| 2026-05-04 05:14 | 11.43843 | -75.83549 | 13783 ft | 374 kts | 349° |
| 2026-05-04 05:15 | 11.46444 | -75.84140 | 14042 ft | 389 kts | 348° |
| 2026-05-04 05:15 | 11.49128 | -75.84752 | 14297 ft | 397 kts | 348° |
| 2026-05-04 05:15 | 11.51815 | -75.85366 | 14547 ft | 402 kts | 348° |
| 2026-05-04 05:15 | 11.53658 | -75.85787 | 14716 ft | 405 kts | 348° |
| 2026-05-04 05:16 | 11.56411 | -75.86416 | 14967 ft | 407 kts | 348° |
| 2026-05-04 05:16 | 11.59185 | -75.87050 | 15217 ft | 409 kts | 348° |
| 2026-05-04 05:16 | 11.61951 | -75.87681 | 15466 ft | 410 kts | 348° |
| 2026-05-04 05:16 | 11.64742 | -75.88318 | 15717 ft | 411 kts | 348° |
| 2026-05-04 05:17 | 11.67525 | -75.88952 | 15966 ft | 412 kts | 348° |
| 2026-05-04 05:17 | 11.70325 | -75.89591 | 16217 ft | 412 kts | 348° |
| 2026-05-04 05:17 | 11.73149 | -75.90235 | 16467 ft | 413 kts | 348° |
| 2026-05-04 05:17 | 11.75957 | -75.90875 | 16715 ft | 413 kts | 348° |
| 2026-05-04 05:18 | 11.78764 | -75.91516 | 16965 ft | 413 kts | 348° |
| 2026-05-04 05:18 | 11.81577 | -75.92157 | 17213 ft | 414 kts | 348° |
| 2026-05-04 05:18 | 11.84383 | -75.92798 | 17465 ft | 414 kts | 348° |
| 2026-05-04 05:18 | 11.87199 | -75.93440 | 17714 ft | 414 kts | 348° |
| 2026-05-04 05:19 | 11.90017 | -75.94083 | 17963 ft | 415 kts | 348° |
| 2026-05-04 05:19 | 11.92802 | -75.94719 | 18208 ft | 415 kts | 348° |
| 2026-05-04 05:19 | 11.95621 | -75.95363 | 18456 ft | 416 kts | 348° |
| 2026-05-04 05:19 | 11.98450 | -75.96009 | 18706 ft | 416 kts | 348° |
| 2026-05-04 05:20 | 12.01274 | -75.96654 | 18955 ft | 416 kts | 348° |
| 2026-05-04 05:20 | 12.04104 | -75.97301 | 19204 ft | 416 kts | 348° |
| 2026-05-04 05:20 | 12.06928 | -75.97947 | 19454 ft | 416 kts | 348° |
| 2026-05-04 05:20 | 12.09758 | -75.98594 | 19704 ft | 416 kts | 348° |
| 2026-05-04 05:21 | 12.12552 | -75.99233 | 19951 ft | 415 kts | 347° |
| 2026-05-04 05:21 | 12.15375 | -75.99878 | 20203 ft | 415 kts | 347° |
| 2026-05-04 05:21 | 12.18193 | -76.00523 | 20450 ft | 415 kts | 347° |
| 2026-05-04 05:21 | 12.21017 | -76.01169 | 20699 ft | 415 kts | 347° |
| 2026-05-04 05:22 | 12.23844 | -76.01816 | 20949 ft | 415 kts | 347° |
| 2026-05-04 05:22 | 12.26664 | -76.02462 | 21200 ft | 415 kts | 347° |
| 2026-05-04 05:22 | 12.29483 | -76.03107 | 21450 ft | 415 kts | 347° |
| 2026-05-04 05:22 | 12.32302 | -76.03752 | 21699 ft | 415 kts | 347° |
| 2026-05-04 05:23 | 12.35092 | -76.04391 | 21946 ft | 415 kts | 347° |
| 2026-05-04 05:23 | 12.37909 | -76.05037 | 22195 ft | 415 kts | 347° |
| 2026-05-04 05:23 | 12.40724 | -76.05682 | 22445 ft | 415 kts | 347° |
| 2026-05-04 05:23 | 12.43547 | -76.06329 | 22695 ft | 415 kts | 347° |
| 2026-05-04 05:24 | 12.46366 | -76.06975 | 22946 ft | 414 kts | 347° |
| 2026-05-04 05:24 | 12.49179 | -76.07620 | 23195 ft | 414 kts | 347° |
| 2026-05-04 05:24 | 12.51993 | -76.08265 | 23441 ft | 414 kts | 346° |
| 2026-05-04 05:24 | 12.54780 | -76.08905 | 23685 ft | 414 kts | 346° |
| 2026-05-04 05:25 | 12.57598 | -76.09551 | 23934 ft | 414 kts | 346° |
| 2026-05-04 05:25 | 12.60411 | -76.10197 | 24184 ft | 414 kts | 346° |
| 2026-05-04 05:25 | 12.63223 | -76.10843 | 24435 ft | 414 kts | 346° |
| 2026-05-04 05:25 | 12.66028 | -76.11487 | 24684 ft | 413 kts | 346° |
| 2026-05-04 05:26 | 12.68835 | -76.12131 | 24934 ft | 413 kts | 346° |
| 2026-05-04 05:26 | 12.71643 | -76.12776 | 25184 ft | 413 kts | 346° |
| 2026-05-04 05:26 | 12.74466 | -76.13425 | 25436 ft | 417 kts | 346° |
| 2026-05-04 05:26 | 12.77322 | -76.14082 | 25689 ft | 422 kts | 346° |
| 2026-05-04 05:27 | 12.80166 | -76.14736 | 25937 ft | 425 kts | 346° |
| 2026-05-04 05:28 | 13.00593 | -76.19436 | 27662 ft | 431 kts | 346° |
| 2026-05-04 05:29 | 13.03506 | -76.20107 | 27903 ft | 431 kts | 346° |
| 2026-05-04 05:29 | 13.06439 | -76.20783 | 28151 ft | 431 kts | 346° |
| 2026-05-04 05:29 | 13.09332 | -76.21449 | 28398 ft | 430 kts | 346° |
| 2026-05-04 05:29 | 13.12254 | -76.22123 | 28648 ft | 430 kts | 346° |
| 2026-05-04 05:31 | 13.32716 | -76.26844 | 30372 ft | 429 kts | 346° |
| 2026-05-04 05:31 | 13.35586 | -76.27507 | 30619 ft | 429 kts | 346° |
| 2026-05-04 05:32 | 13.38499 | -76.28180 | 30869 ft | 429 kts | 346° |
| 2026-05-04 05:32 | 13.41407 | -76.28851 | 31114 ft | 429 kts | 346° |
| 2026-05-04 05:32 | 13.44327 | -76.29526 | 31351 ft | 429 kts | 346° |
| 2026-05-04 05:33 | 13.50143 | -76.30871 | 31839 ft | 428 kts | 345° |
| 2026-05-04 05:33 | 13.53059 | -76.31545 | 32081 ft | 428 kts | 345° |
| 2026-05-04 05:33 | 13.55966 | -76.32218 | 32316 ft | 428 kts | 345° |
| 2026-05-04 05:33 | 13.58880 | -76.32892 | 32550 ft | 428 kts | 345° |
| 2026-05-04 05:34 | 13.61793 | -76.33567 | 32798 ft | 433 kts | 345° |
| 2026-05-04 05:34 | 13.64740 | -76.34250 | 33048 ft | 436 kts | 345° |
| 2026-05-04 05:34 | 13.67725 | -76.34942 | 33292 ft | 439 kts | 345° |
| 2026-05-04 05:34 | 13.70674 | -76.35625 | 33529 ft | 442 kts | 345° |
| 2026-05-04 05:35 | 13.73695 | -76.36326 | 33763 ft | 446 kts | 345° |
| 2026-05-04 05:35 | 13.76730 | -76.37029 | 33903 ft | 449 kts | 345° |
| 2026-05-04 05:35 | 13.79806 | -76.37743 | 33959 ft | 452 kts | 345° |
| 2026-05-04 05:36 | 13.85982 | -76.39175 | 33972 ft | 454 kts | 345° |
| 2026-05-04 05:36 | 13.92112 | -76.40596 | 33971 ft | 455 kts | 345° |
| 2026-05-04 05:37 | 13.98292 | -76.42030 | 33973 ft | 455 kts | 345° |
| 2026-05-04 05:37 | 14.04475 | -76.43467 | 33975 ft | 455 kts | 345° |
| 2026-05-04 05:38 | 14.13753 | -76.45623 | 33979 ft | 455 kts | 345° |
| 2026-05-04 05:38 | 14.19910 | -76.47056 | 33980 ft | 455 kts | 345° |
| 2026-05-04 05:39 | 14.29174 | -76.49212 | 33982 ft | 455 kts | 345° |
| 2026-05-04 05:40 | 14.38441 | -76.51372 | 33985 ft | 455 kts | 345° |
| 2026-05-04 05:40 | 14.44602 | -76.52808 | 33986 ft | 455 kts | 345° |
| 2026-05-04 05:41 | 14.50790 | -76.54251 | 33984 ft | 455 kts | 345° |
| 2026-05-04 05:41 | 14.56971 | -76.55694 | 33981 ft | 455 kts | 345° |
| 2026-05-04 05:42 | 14.63148 | -76.57137 | 33982 ft | 455 kts | 345° |
| 2026-05-04 05:42 | 14.69326 | -76.58581 | 33988 ft | 455 kts | 345° |
| 2026-05-04 05:43 | 14.75501 | -76.60025 | 33993 ft | 455 kts | 345° |
| 2026-05-04 05:45 | 15.00163 | -76.65800 | 33995 ft | 455 kts | 345° |
| 2026-05-04 05:47 | 15.24830 | -76.71590 | 34003 ft | 455 kts | 344° |
| 2026-05-04 05:47 | 15.30969 | -76.73033 | 34004 ft | 455 kts | 344° |
| 2026-05-04 05:48 | 15.37149 | -76.74487 | 34005 ft | 455 kts | 344° |
| 2026-05-04 05:48 | 15.43325 | -76.75940 | 34000 ft | 455 kts | 344° |
| 2026-05-04 05:49 | 15.49491 | -76.77393 | 34001 ft | 454 kts | 344° |
| 2026-05-04 05:49 | 15.55636 | -76.78841 | 34003 ft | 454 kts | 344° |
| 2026-05-04 05:51 | 15.80275 | -76.84656 | 34010 ft | 454 kts | 344° |
| 2026-05-04 05:52 | 15.86439 | -76.86113 | 34010 ft | 454 kts | 344° |
| 2026-05-04 05:52 | 15.92592 | -76.87569 | 34011 ft | 454 kts | 344° |
| 2026-05-04 05:54 | 16.17193 | -76.93397 | 34013 ft | 453 kts | 344° |
| 2026-05-04 05:55 | 16.23324 | -76.94852 | 34014 ft | 453 kts | 344° |
| 2026-05-04 05:55 | 16.29469 | -76.96311 | 34015 ft | 453 kts | 344° |
| 2026-05-04 05:56 | 16.35621 | -76.97772 | 34015 ft | 452 kts | 344° |
| 2026-05-04 05:56 | 16.41764 | -76.99233 | 34016 ft | 452 kts | 344° |
| 2026-05-04 05:57 | 16.47903 | -77.00694 | 34016 ft | 453 kts | 344° |
| 2026-05-04 05:57 | 16.54018 | -77.02149 | 34017 ft | 453 kts | 344° |
| 2026-05-04 05:58 | 16.60193 | -77.03620 | 34012 ft | 453 kts | 344° |
| 2026-05-04 05:58 | 16.66280 | -77.05071 | 34017 ft | 452 kts | 344° |
| 2026-05-04 05:59 | 16.72472 | -77.06548 | 34018 ft | 452 kts | 344° |
| 2026-05-04 05:59 | 16.78564 | -77.08002 | 34018 ft | 452 kts | 344° |
| 2026-05-04 06:00 | 16.84711 | -77.09471 | 34015 ft | 452 kts | 344° |
| 2026-05-04 06:00 | 16.90862 | -77.10941 | 34016 ft | 452 kts | 344° |
| 2026-05-04 06:01 | 16.96960 | -77.12399 | 34019 ft | 452 kts | 344° |
| 2026-05-04 06:03 | 17.20493 | -77.18037 | 34021 ft | 453 kts | 344° |
| 2026-05-04 06:05 | 17.48125 | -77.24675 | 34017 ft | 453 kts | 344° |
| 2026-05-04 06:06 | 17.54280 | -77.26157 | 34021 ft | 453 kts | 344° |
| 2026-05-04 06:06 | 17.60394 | -77.27629 | 34020 ft | 453 kts | 344° |
| 2026-05-04 06:07 | 17.66549 | -77.29113 | 34021 ft | 453 kts | 344° |
| 2026-05-04 06:07 | 17.72699 | -77.30596 | 34018 ft | 453 kts | 344° |
| 2026-05-04 06:08 | 17.78852 | -77.32081 | 34016 ft | 453 kts | 344° |
| 2026-05-04 06:08 | 17.85004 | -77.33567 | 34021 ft | 453 kts | 345° |
| 2026-05-04 06:09 | 17.91172 | -77.35058 | 34018 ft | 454 kts | 345° |
| 2026-05-04 06:11 | 18.15787 | -77.41019 | 34021 ft | 455 kts | 345° |
| 2026-05-04 06:13 | 18.40485 | -77.47017 | 34022 ft | 455 kts | 345° |
| 2026-05-04 06:14 | 18.62074 | -77.52274 | 34022 ft | 455 kts | 345° |
| 2026-05-04 06:15 | 18.68218 | -77.53773 | 34019 ft | 455 kts | 345° |
| 2026-05-04 06:15 | 18.74396 | -77.55281 | 34021 ft | 455 kts | 345° |
| 2026-05-04 06:16 | 18.80583 | -77.56793 | 34020 ft | 455 kts | 345° |
| 2026-05-04 06:16 | 18.86735 | -77.58297 | 34023 ft | 455 kts | 345° |
| 2026-05-04 06:17 | 18.92869 | -77.59798 | 34024 ft | 455 kts | 345° |
| 2026-05-04 06:17 | 18.99038 | -77.61309 | 34023 ft | 455 kts | 345° |
| 2026-05-04 06:18 | 19.05212 | -77.62821 | 34024 ft | 455 kts | 345° |
| 2026-05-04 06:20 | 19.29885 | -77.68879 | 34029 ft | 455 kts | 344° |
| 2026-05-04 06:21 | 19.45299 | -77.72673 | 34029 ft | 455 kts | 344° |
| 2026-05-04 06:22 | 19.51481 | -77.74197 | 34033 ft | 455 kts | 344° |
| 2026-05-04 06:25 | 19.94629 | -77.84865 | 34042 ft | 455 kts | 344° |
| 2026-05-04 06:26 | 20.00813 | -77.86399 | 34032 ft | 455 kts | 344° |
| 2026-05-04 06:26 | 20.06960 | -77.87925 | 34037 ft | 455 kts | 344° |
| 2026-05-04 06:27 | 20.22415 | -77.91768 | 34042 ft | 455 kts | 344° |
| 2026-05-04 06:28 | 20.28585 | -77.93304 | 34037 ft | 455 kts | 344° |
| 2026-05-04 06:28 | 20.34740 | -77.94837 | 34037 ft | 455 kts | 344° |
| 2026-05-04 06:29 | 20.40922 | -77.96379 | 34037 ft | 455 kts | 344° |
| 2026-05-04 06:29 | 20.47070 | -77.97913 | 34038 ft | 455 kts | 344° |
| 2026-05-04 06:30 | 20.53257 | -77.99458 | 34039 ft | 455 kts | 344° |
| 2026-05-04 06:30 | 20.59441 | -78.01004 | 34040 ft | 455 kts | 343° |
| 2026-05-04 06:31 | 20.65578 | -78.02540 | 34041 ft | 455 kts | 343° |
| 2026-05-04 06:31 | 20.71758 | -78.04087 | 34043 ft | 456 kts | 343° |
| 2026-05-04 06:33 | 20.96439 | -78.10281 | 34048 ft | 456 kts | 342° |
| 2026-05-04 06:34 | 21.02616 | -78.11834 | 34048 ft | 456 kts | 342° |
| 2026-05-04 06:34 | 21.08793 | -78.13389 | 34049 ft | 456 kts | 342° |
| 2026-05-04 06:36 | 21.33475 | -78.19614 | 34050 ft | 456 kts | 342° |
| 2026-05-04 06:37 | 21.39629 | -78.21169 | 34049 ft | 456 kts | 341° |
| 2026-05-04 06:37 | 21.45809 | -78.22733 | 34049 ft | 456 kts | 341° |
| 2026-05-04 06:38 | 21.51990 | -78.24298 | 34049 ft | 456 kts | 341° |
| 2026-05-04 06:40 | 21.76677 | -78.30563 | 34046 ft | 456 kts | 341° |
| 2026-05-04 06:40 | 21.82857 | -78.32135 | 34045 ft | 456 kts | 341° |
| 2026-05-04 06:41 | 21.89042 | -78.33709 | 34044 ft | 456 kts | 341° |
| 2026-05-04 06:41 | 21.95186 | -78.35275 | 34042 ft | 456 kts | 341° |
| 2026-05-04 06:42 | 22.01373 | -78.36852 | 34041 ft | 456 kts | 341° |
| 2026-05-04 06:44 | 22.26069 | -78.43164 | 34034 ft | 456 kts | 341° |
| 2026-05-04 06:44 | 22.32245 | -78.44746 | 34031 ft | 456 kts | 341° |
| 2026-05-04 06:45 | 22.38426 | -78.46331 | 34029 ft | 456 kts | 340° |
| 2026-05-04 06:45 | 22.44607 | -78.47917 | 34028 ft | 456 kts | 340° |
| 2026-05-04 06:46 | 22.50788 | -78.49505 | 34028 ft | 456 kts | 340° |
| 2026-05-04 06:46 | 22.56967 | -78.51094 | 34030 ft | 456 kts | 340° |
| 2026-05-04 06:48 | 22.81947 | -78.56002 | 34025 ft | 471 kts | 357° |
| 2026-05-04 06:50 | 23.07070 | -78.53873 | 34032 ft | 472 kts | 358° |
| 2026-05-04 06:51 | 23.13588 | -78.53315 | 34027 ft | 472 kts | 358° |
| 2026-05-04 06:51 | 23.20143 | -78.52755 | 34032 ft | 473 kts | 358° |
| 2026-05-04 06:52 | 23.26705 | -78.52194 | 34024 ft | 473 kts | 358° |
| 2026-05-04 06:52 | 23.33289 | -78.51630 | 34018 ft | 473 kts | 358° |
| 2026-05-04 06:53 | 23.39851 | -78.51067 | 34019 ft | 473 kts | 358° |
| 2026-05-04 06:53 | 23.46396 | -78.50505 | 34029 ft | 473 kts | 358° |
| 2026-05-04 06:54 | 23.52960 | -78.49941 | 34020 ft | 473 kts | 358° |
| 2026-05-04 06:54 | 23.59558 | -78.49374 | 34034 ft | 473 kts | 358° |
| 2026-05-04 06:55 | 23.66079 | -78.48813 | 34023 ft | 474 kts | 358° |
| 2026-05-04 06:55 | 23.72667 | -78.48245 | 34038 ft | 474 kts | 358° |
| 2026-05-04 06:57 | 23.98944 | -78.46620 | 34037 ft | 461 kts | 344° |
| 2026-05-04 06:58 | 24.04841 | -78.48844 | 34041 ft | 445 kts | 326° |
| 2026-05-04 06:58 | 24.10255 | -78.52106 | 34039 ft | 444 kts | 324° |
| 2026-05-04 06:59 | 24.15642 | -78.55424 | 34039 ft | 444 kts | 324° |
| 2026-05-04 06:59 | 24.21042 | -78.58744 | 34040 ft | 444 kts | 324° |
| 2026-05-04 07:01 | 24.42606 | -78.71976 | 34040 ft | 444 kts | 324° |
| 2026-05-04 07:02 | 24.47977 | -78.75277 | 34039 ft | 445 kts | 324° |
| 2026-05-04 07:02 | 24.53386 | -78.78605 | 34040 ft | 444 kts | 324° |
| 2026-05-04 07:03 | 24.58785 | -78.81931 | 34039 ft | 444 kts | 324° |
| 2026-05-04 07:03 | 24.64189 | -78.85263 | 34038 ft | 445 kts | 324° |
| 2026-05-04 07:04 | 24.69709 | -78.88330 | 33908 ft | 459 kts | 335° |
| 2026-05-04 07:04 | 24.72932 | -78.88948 | 33384 ft | 481 kts | 351° |
| 2026-05-04 07:04 | 24.76314 | -78.88593 | 32776 ft | 499 kts | 7° |
| 2026-05-04 07:05 | 24.79610 | -78.87242 | 32157 ft | 512 kts | 23° |
| 2026-05-04 07:05 | 24.82541 | -78.84975 | 31542 ft | 521 kts | 39° |
| 2026-05-04 07:05 | 24.84902 | -78.81925 | 30925 ft | 525 kts | 55° |
| 2026-05-04 07:05 | 24.86482 | -78.78389 | 30319 ft | 525 kts | 71° |
| 2026-05-04 07:06 | 24.87250 | -78.70484 | 29084 ft | 516 kts | 95° |
| 2026-05-04 07:06 | 24.87041 | -78.66537 | 28462 ft | 515 kts | 96° |
| 2026-05-04 07:06 | 24.86881 | -78.62592 | 27835 ft | 514 kts | 94° |
| 2026-05-04 07:07 | 24.86870 | -78.58650 | 27205 ft | 514 kts | 89° |
| 2026-05-04 07:08 | 25.03706 | -78.44851 | 24036 ft | 452 kts | 348° |
| 2026-05-04 07:09 | 25.06805 | -78.45202 | 24036 ft | 453 kts | 349° |
| 2026-05-04 07:09 | 25.09971 | -78.45442 | 24039 ft | 458 kts | 352° |
| 2026-05-04 07:09 | 25.13177 | -78.45578 | 24041 ft | 463 kts | 353° |
| 2026-05-04 07:09 | 25.16417 | -78.45649 | 24040 ft | 467 kts | 354° |
| 2026-05-04 07:10 | 25.19676 | -78.45686 | 24039 ft | 469 kts | 354° |
| 2026-05-04 07:10 | 25.22952 | -78.45709 | 24038 ft | 471 kts | 354° |
| 2026-05-04 07:12 | 25.43174 | -78.53242 | 23906 ft | 439 kts | 303° |
| 2026-05-04 07:12 | 25.44848 | -78.56080 | 23420 ft | 440 kts | 294° |
| 2026-05-04 07:12 | 25.46103 | -78.59161 | 22813 ft | 441 kts | 289° |
| 2026-05-04 07:12 | 25.47299 | -78.62285 | 22193 ft | 441 kts | 289° |
| 2026-05-04 07:13 | 25.48496 | -78.65422 | 21567 ft | 440 kts | 289° |
| 2026-05-04 07:13 | 25.49675 | -78.68510 | 20941 ft | 439 kts | 289° |
| 2026-05-04 07:13 | 25.50862 | -78.71619 | 20211 ft | 439 kts | 290° |
| 2026-05-04 07:14 | 25.55488 | -78.83720 | 18190 ft | 412 kts | 290° |
| 2026-05-04 07:14 | 25.56604 | -78.86650 | 17565 ft | 410 kts | 290° |
| 2026-05-04 07:15 | 25.57696 | -78.89519 | 16946 ft | 408 kts | 290° |
| 2026-05-04 07:15 | 25.58798 | -78.92416 | 16319 ft | 405 kts | 290° |
| 2026-05-04 07:15 | 25.59887 | -78.95279 | 15695 ft | 403 kts | 290° |
| 2026-05-04 07:15 | 25.60976 | -78.98141 | 15068 ft | 401 kts | 290° |
| 2026-05-04 07:16 | 25.62052 | -79.00976 | 14444 ft | 398 kts | 290° |
| 2026-05-04 07:16 | 25.63123 | -79.03796 | 14042 ft | 390 kts | 290° |
| 2026-05-04 07:16 | 25.64154 | -79.06518 | 13996 ft | 374 kts | 290° |
| 2026-05-04 07:16 | 25.65135 | -79.09126 | 13519 ft | 370 kts | 290° |
| 2026-05-04 07:17 | 25.66125 | -79.11770 | 12893 ft | 371 kts | 290° |
| 2026-05-04 07:17 | 25.67115 | -79.14416 | 12267 ft | 371 kts | 290° |
| 2026-05-04 07:17 | 25.68106 | -79.17062 | 11642 ft | 371 kts | 290° |
| 2026-05-04 07:17 | 25.69097 | -79.19710 | 11016 ft | 372 kts | 290° |
| 2026-05-04 07:18 | 25.70089 | -79.22358 | 10390 ft | 372 kts | 290° |
| 2026-05-04 07:18 | 25.71068 | -79.24972 | 10041 ft | 364 kts | 291° |
| 2026-05-04 07:18 | 25.72022 | -79.27517 | 10013 ft | 349 kts | 290° |
| 2026-05-04 07:18 | 25.72940 | -79.29969 | 10009 ft | 339 kts | 290° |
| 2026-05-04 07:19 | 25.73836 | -79.32387 | 10010 ft | 339 kts | 290° |
| 2026-05-04 07:19 | 25.74727 | -79.34822 | 10011 ft | 344 kts | 290° |
| 2026-05-04 07:19 | 25.75629 | -79.37293 | 10011 ft | 348 kts | 290° |
| 2026-05-04 07:19 | 25.76534 | -79.39767 | 10010 ft | 351 kts | 290° |
| 2026-05-04 07:20 | 25.77454 | -79.42279 | 10009 ft | 352 kts | 290° |
| 2026-05-04 07:20 | 25.78377 | -79.44801 | 10005 ft | 354 kts | 290° |
| 2026-05-04 07:20 | 25.79316 | -79.47366 | 9559 ft | 364 kts | 290° |
| 2026-05-04 07:20 | 25.80275 | -79.49992 | 8933 ft | 368 kts | 290° |
| 2026-05-04 07:22 | 25.87049 | -79.67972 | 5994 ft | 332 kts | 295° |
| 2026-05-04 07:22 | 25.88050 | -79.70238 | 5992 ft | 322 kts | 295° |
| 2026-05-04 07:23 | 25.89035 | -79.72472 | 5994 ft | 320 kts | 295° |
| 2026-05-04 07:23 | 25.90009 | -79.74706 | 6000 ft | 323 kts | 294° |
| 2026-05-04 07:23 | 25.90982 | -79.76969 | 5998 ft | 327 kts | 294° |
| 2026-05-04 07:23 | 25.91961 | -79.79260 | 5997 ft | 328 kts | 294° |
| 2026-05-04 07:24 | 25.92939 | -79.81556 | 5997 ft | 329 kts | 294° |
| 2026-05-04 07:24 | 25.93920 | -79.83860 | 5997 ft | 330 kts | 294° |
| 2026-05-04 07:24 | 25.94892 | -79.86144 | 5997 ft | 330 kts | 294° |
| 2026-05-04 07:24 | 25.95874 | -79.88453 | 5996 ft | 330 kts | 294° |
| 2026-05-04 07:25 | 25.96855 | -79.90760 | 5995 ft | 331 kts | 294° |
| 2026-05-04 07:26 | 26.06629 | -80.04954 | 4995 ft | 314 kts | 311° |
| 2026-05-04 07:27 | 26.08060 | -80.06726 | 4989 ft | 302 kts | 311° |
| 2026-05-04 07:27 | 26.09451 | -80.08447 | 4988 ft | 295 kts | 311° |
| 2026-05-04 07:27 | 26.10815 | -80.10135 | 4991 ft | 294 kts | 311° |
| 2026-05-04 07:27 | 26.12187 | -80.11835 | 4992 ft | 297 kts | 311° |
| 2026-05-04 07:28 | 26.13535 | -80.13590 | 4987 ft | 300 kts | 306° |
| 2026-05-04 07:28 | 26.14519 | -80.15607 | 4993 ft | 301 kts | 292° |
| 2026-05-04 07:28 | 26.15000 | -80.17894 | 4997 ft | 303 kts | 276° |
| 2026-05-04 07:28 | 26.15050 | -80.20224 | 5007 ft | 305 kts | 270° |
| 2026-05-04 07:29 | 26.15061 | -80.22589 | 4999 ft | 305 kts | 270° |
| 2026-05-04 07:29 | 26.15067 | -80.24947 | 4998 ft | 304 kts | 270° |
| 2026-05-04 07:29 | 26.15074 | -80.27300 | 4998 ft | 303 kts | 270° |
| 2026-05-04 07:29 | 26.15082 | -80.29642 | 4997 ft | 303 kts | 270° |
| 2026-05-04 07:30 | 26.15090 | -80.31962 | 5001 ft | 302 kts | 270° |
| 2026-05-04 07:30 | 26.15099 | -80.34305 | 5001 ft | 302 kts | 270° |
| 2026-05-04 07:30 | 26.15104 | -80.36648 | 5002 ft | 303 kts | 270° |
| 2026-05-04 07:30 | 26.15104 | -80.38992 | 5002 ft | 303 kts | 270° |
| 2026-05-04 07:31 | 26.15101 | -80.41344 | 5004 ft | 303 kts | 270° |
| 2026-05-04 07:31 | 26.15098 | -80.43695 | 4842 ft | 309 kts | 270° |
| 2026-05-04 07:33 | 26.15012 | -80.60259 | 3001 ft | 276 kts | 269° |
| 2026-05-04 07:33 | 26.14908 | -80.62349 | 3006 ft | 264 kts | 267° |
| 2026-05-04 07:33 | 26.14778 | -80.64336 | 3002 ft | 252 kts | 268° |
| 2026-05-04 07:33 | 26.14807 | -80.66252 | 3007 ft | 242 kts | 274° |
| 2026-05-04 07:34 | 26.14900 | -80.68105 | 3004 ft | 237 kts | 274° |
| 2026-05-04 07:34 | 26.14971 | -80.69904 | 3008 ft | 234 kts | 273° |
| 2026-05-04 07:34 | 26.15014 | -80.71738 | 3009 ft | 234 kts | 272° |
| 2026-05-04 07:34 | 26.15033 | -80.73536 | 3014 ft | 236 kts | 272° |
| 2026-05-04 07:35 | 26.15038 | -80.75378 | 3014 ft | 239 kts | 271° |
| 2026-05-04 07:35 | 26.14735 | -80.77210 | 2972 ft | 244 kts | 248° |
| 2026-05-04 07:35 | 26.13650 | -80.78617 | 3042 ft | 241 kts | 220° |
| 2026-05-04 07:35 | 26.12150 | -80.79460 | 3032 ft | 244 kts | 200° |
| 2026-05-04 07:36 | 26.10480 | -80.79800 | 3012 ft | 244 kts | 183° |
| 2026-05-04 07:36 | 26.08821 | -80.79546 | 3021 ft | 241 kts | 165° |